Time;durP1;ratioP1;P1;durP2;ratioP2;P2;SDS_P1;SDS_P2;PMS_P1;PMS_P2;Temp;Humidity;BMP_temperature;BMP_pressure;BME280_temperature;BME280_humidity;BME280_pressure;Samples;Min_cycle;Max_cycle;Signal;HPM_P1;HPM_P2
2022/07/01 00:00:47;;;;;;;6.20;1.65;;;16.40;99.90;;;;;;4822549;29;20050;-59
2022/07/01 00:03:13;;;;;;;5.07;1.85;;;16.50;99.90;;;;;;4823071;29;20133;-58
2022/07/01 00:05:39;;;;;;;5.78;1.83;;;16.50;99.90;;;;;;4823202;29;20051;-58
2022/07/01 00:08:05;;;;;;;5.28;1.90;;;16.40;99.90;;;;;;4806453;29;20062;-59
2022/07/01 00:10:31;;;;;;;4.13;1.63;;;16.50;99.90;;;;;;4806305;29;20058;-59
2022/07/01 00:12:57;;;;;;;5.22;1.50;;;16.50;99.90;;;;;;4822353;29;20061;-58
2022/07/01 00:15:23;;;;;;;7.47;2.45;;;16.50;99.90;;;;;;4806574;29;20050;-59
2022/07/01 00:17:49;;;;;;;4.57;1.77;;;16.50;99.90;;;;;;4790235;29;20073;-63
2022/07/01 00:20:15;;;;;;;3.83;1.35;;;16.50;99.90;;;;;;4822773;29;20110;-58
2022/07/01 00:22:41;;;;;;;6.68;1.77;;;16.50;99.90;;;;;;4822693;29;20062;-58
2022/07/01 00:25:08;;;;;;;4.30;1.60;;;16.50;99.90;;;;;;4822375;29;20050;-58
2022/07/01 00:27:38;;;;;;;5.25;1.55;;;16.50;99.90;;;;;;4822830;29;20054;-59
2022/07/01 00:30:04;;;;;;;6.45;1.63;;;16.50;99.90;;;;;;4822353;29;20589;-59
2022/07/01 00:32:30;;;;;;;3.95;1.77;;;16.50;99.90;;;;;;4822203;29;20552;-59
2022/07/01 00:34:56;;;;;;;5.78;1.67;;;16.50;99.90;;;;;;4822286;29;20058;-59
2022/07/01 00:37:21;;;;;;;5.68;1.92;;;16.50;99.90;;;;;;4806332;29;20382;-61
2022/07/01 00:39:47;;;;;;;3.55;1.40;;;16.50;99.90;;;;;;4806379;29;20054;-60
2022/07/01 00:42:12;;;;;;;3.63;1.60;;;16.50;99.90;;;;;;4806075;29;20125;-60
2022/07/01 00:44:38;;;;;;;3.17;1.52;;;16.40;99.90;;;;;;4822906;29;20474;-60
2022/07/01 00:47:09;;;;;;;5.18;1.58;;;16.40;99.90;;;;;;4806070;29;20103;-59
2022/07/01 00:49:35;;;;;;;4.15;1.70;;;16.40;99.90;;;;;;4822764;29;20055;-59
2022/07/01 00:52:01;;;;;;;5.38;1.70;;;16.40;99.90;;;;;;4824054;29;20515;-59
2022/07/01 00:54:27;;;;;;;3.95;2.00;;;16.40;99.90;;;;;;4825731;29;20058;-59
2022/07/01 00:56:53;;;;;;;3.92;1.65;;;16.40;99.90;;;;;;4825689;29;20058;-63
2022/07/01 00:59:19;;;;;;;4.25;1.83;;;16.40;99.90;;;;;;4809563;29;20051;-59
2022/07/01 01:01:44;;;;;;;4.40;1.77;;;16.40;99.90;;;;;;4825795;29;20535;-59
2022/07/01 01:04:10;;;;;;;4.10;1.63;;;16.40;99.90;;;;;;4825448;29;20107;-60
2022/07/01 01:06:36;;;;;;;3.03;1.80;;;16.30;99.90;;;;;;4809644;29;20111;-59
2022/07/01 01:09:03;;;;;;;3.55;1.55;;;16.40;99.90;;;;;;4825210;29;20046;-58
2022/07/01 01:11:28;;;;;;;3.03;1.60;;;16.40;99.90;;;;;;4825467;29;20102;-58
2022/07/01 01:13:54;;;;;;;6.43;2.10;;;16.40;99.90;;;;;;4825516;29;20050;-62
2022/07/01 01:16:21;;;;;;;4.18;1.80;;;16.40;99.90;;;;;;4824855;29;20050;-59
2022/07/01 01:18:47;;;;;;;4.00;1.65;;;16.40;99.90;;;;;;4825478;29;20052;-58
2022/07/01 01:21:13;;;;;;;4.80;1.73;;;16.40;99.90;;;;;;4825052;29;20481;-58
2022/07/01 01:23:38;;;;;;;4.07;1.90;;;16.40;99.90;;;;;;4825531;29;20139;-58
2022/07/01 01:26:14;;;;;;;3.83;1.77;;;16.40;99.90;;;;;;4824805;29;20141;-58
2022/07/01 01:28:39;;;;;;;2.97;1.52;;;16.30;99.90;;;;;;4825772;29;20059;-58
2022/07/01 01:31:05;;;;;;;4.30;1.92;;;16.30;99.90;;;;;;4824910;29;20145;-59
2022/07/01 01:33:31;;;;;;;6.47;1.85;;;16.30;99.90;;;;;;4809347;29;20064;-59
2022/07/01 01:35:56;;;;;;;3.10;1.55;;;16.30;99.90;;;;;;4779452;29;20054;-61
2022/07/01 01:38:22;;;;;;;2.88;1.58;;;16.20;99.90;;;;;;4824625;29;20050;-59
2022/07/01 01:40:49;;;;;;;3.67;1.60;;;16.20;99.90;;;;;;4825323;29;20050;-58
2022/07/01 01:43:16;;;;;;;3.13;1.52;;;16.20;99.90;;;;;;4824830;29;20054;-58
2022/07/01 01:45:41;;;;;;;2.92;1.40;;;16.20;99.90;;;;;;4824888;29;20524;-60
2022/07/01 01:48:07;;;;;;;2.75;1.55;;;16.30;99.90;;;;;;4824826;29;20142;-58
2022/07/01 01:50:33;;;;;;;3.33;1.80;;;16.20;99.90;;;;;;4825229;29;20055;-59
2022/07/01 01:52:58;;;;;;;3.30;1.70;;;16.20;99.90;;;;;;4825161;29;20086;-59
2022/07/01 01:55:24;;;;;;;3.53;1.90;;;16.20;99.90;;;;;;4808575;29;20505;-59
2022/07/01 01:57:50;;;;;;;3.30;1.52;;;16.20;99.90;;;;;;4824990;29;20057;-58
2022/07/01 02:00:15;;;;;;;3.03;1.70;;;16.20;99.90;;;;;;4793276;29;20508;-58
2022/07/01 02:02:41;;;;;;;3.15;2.00;;;16.10;99.90;;;;;;4823892;29;20092;-58
2022/07/01 02:05:10;;;;;;;2.95;1.90;;;16.20;99.90;;;;;;4824397;29;20054;-59
2022/07/01 02:07:35;;;;;;;3.05;1.75;;;16.20;99.90;;;;;;4824921;29;20097;-59
2022/07/01 02:10:01;;;;;;;4.05;1.50;;;16.20;99.90;;;;;;4808810;29;20442;-62
2022/07/01 02:12:27;;;;;;;2.83;1.77;;;16.20;99.90;;;;;;4793393;29;20501;-59
2022/07/01 02:14:53;;;;;;;3.55;1.92;;;16.20;99.90;;;;;;4824703;29;20093;-58
2022/07/01 02:17:18;;;;;;;3.63;1.70;;;16.20;99.90;;;;;;4808158;29;20054;-58
2022/07/01 02:19:44;;;;;;;4.43;1.80;;;16.20;99.90;;;;;;4808475;29;20054;-59
2022/07/01 02:22:09;;;;;;;4.40;1.92;;;16.20;99.90;;;;;;4824483;29;20111;-59
2022/07/01 02:24:35;;;;;;;3.30;1.80;;;16.20;99.90;;;;;;4824550;29;20051;-59
2022/07/01 02:27:01;;;;;;;4.97;1.73;;;16.20;99.90;;;;;;4808459;29;20057;-59
2022/07/01 02:29:27;;;;;;;3.65;2.15;;;16.20;99.90;;;;;;4824063;29;20046;-59
2022/07/01 02:31:53;;;;;;;4.43;1.98;;;16.20;99.90;;;;;;4804807;29;20062;-58
2022/07/01 02:34:18;;;;;;;5.75;2.10;;;16.20;99.90;;;;;;4805955;29;20088;-58
2022/07/01 02:36:44;;;;;;;3.22;1.92;;;16.20;99.90;;;;;;4804744;29;20451;-58
2022/07/01 02:39:10;;;;;;;2.78;1.70;;;16.10;99.90;;;;;;4805803;29;20054;-58
2022/07/01 02:42:22;;;;;;;2.67;1.70;;;16.10;99.90;;;;;;4806290;29;20481;-58
2022/07/01 02:44:21;;;;;;;4.80;1.80;;;16.10;99.90;;;;;;4805754;29;20065;-58
2022/07/01 02:46:47;;;;;;;4.13;2.20;;;16.10;99.90;;;;;;4806049;29;20050;-59
2022/07/01 02:49:12;;;;;;;4.72;1.88;;;16.10;99.90;;;;;;4789581;29;20042;-58
2022/07/01 02:51:38;;;;;;;2.30;1.90;;;16.10;99.90;;;;;;4805931;29;20082;-61
2022/07/01 02:54:04;;;;;;;3.67;2.00;;;16.10;99.90;;;;;;4805016;29;20130;-60
2022/07/01 02:56:30;;;;;;;3.60;1.85;;;16.00;99.90;;;;;;4805600;29;20063;-59
2022/07/01 02:58:56;;;;;;;4.35;2.17;;;16.00;99.90;;;;;;4804631;29;20137;-59
2022/07/01 03:01:22;;;;;;;3.10;1.90;;;16.00;99.90;;;;;;4805383;29;20046;-60
2022/07/01 03:03:48;;;;;;;2.90;2.00;;;16.00;99.90;;;;;;4805811;29;20123;-59
2022/07/01 03:06:14;;;;;;;4.13;2.28;;;16.00;99.90;;;;;;4804234;29;20082;-60
2022/07/01 03:08:40;;;;;;;3.13;2.20;;;16.00;99.90;;;;;;4789327;29;20066;-59
2022/07/01 03:11:05;;;;;;;3.40;2.40;;;15.90;99.90;;;;;;4805489;29;20067;-61
2022/07/01 03:13:31;;;;;;;4.47;2.80;;;15.90;99.90;;;;;;4803847;29;20047;-59
2022/07/01 03:15:57;;;;;;;4.28;2.63;;;15.90;99.90;;;;;;4805410;29;20050;-60
2022/07/01 03:18:23;;;;;;;3.70;2.20;;;15.90;99.90;;;;;;4804823;29;20046;-60
2022/07/01 03:20:51;;;;;;;4.78;2.40;;;15.90;99.90;;;;;;4805308;29;20054;-60
2022/07/01 03:23:17;;;;;;;5.55;2.47;;;15.80;99.90;;;;;;4804962;29;20047;-60
2022/07/01 03:25:42;;;;;;;3.67;2.38;;;15.80;99.90;;;;;;4805346;29;20107;-61
2022/07/01 03:28:08;;;;;;;7.13;2.88;;;15.80;99.90;;;;;;4805444;29;20050;-60
2022/07/01 03:30:34;;;;;;;5.00;2.40;;;15.80;99.90;;;;;;4804046;29;20145;-60
2022/07/01 03:33:00;;;;;;;7.13;2.45;;;15.80;99.90;;;;;;4803883;29;20416;-60
2022/07/01 03:35:45;;;;;;;4.25;2.40;;;15.70;99.90;;;;;;4774148;29;20111;-59
2022/07/01 03:38:11;;;;;;;5.35;2.50;;;15.70;99.90;;;;;;4805302;29;20055;-60
2022/07/01 03:40:38;;;;;;;6.30;2.90;;;15.70;99.90;;;;;;4803920;29;20134;-60
2022/07/01 03:43:04;;;;;;;4.63;2.85;;;15.70;99.90;;;;;;4804829;29;20090;-60
2022/07/01 03:45:31;;;;;;;5.32;3.20;;;15.70;99.90;;;;;;4804728;29;20062;-60
2022/07/01 03:47:57;;;;;;;5.68;2.90;;;15.70;99.90;;;;;;4805078;29;20134;-60
2022/07/01 03:50:24;;;;;;;6.07;2.88;;;15.70;99.90;;;;;;4803397;29;20058;-59
2022/07/01 03:54:29;;;;;;;5.40;2.47;;;15.70;99.90;;;;;;4803936;29;20142;-59
2022/07/01 03:55:36;;;;;;;5.78;2.72;;;15.70;99.90;;;;;;4804209;29;20137;-60
2022/07/01 03:58:02;;;;;;;5.50;2.75;;;15.70;99.90;;;;;;4804604;29;20051;-59
2022/07/01 04:00:28;;;;;;;4.28;2.60;;;15.70;99.90;;;;;;4803202;29;20076;-59
2022/07/01 04:02:54;;;;;;;5.03;2.70;;;15.70;99.90;;;;;;4804827;29;20050;-60
2022/07/01 04:05:19;;;;;;;7.25;3.10;;;15.70;99.90;;;;;;4804145;29;20050;-58
2022/07/01 04:07:46;;;;;;;7.00;3.40;;;15.70;99.90;;;;;;4804576;29;20047;-58
2022/07/01 04:10:12;;;;;;;5.55;3.30;;;15.70;99.90;;;;;;4804474;29;20085;-57
2022/07/01 04:12:38;;;;;;;5.05;3.03;;;15.70;99.90;;;;;;4804573;29;20050;-58
2022/07/01 04:15:05;;;;;;;5.78;3.17;;;15.80;99.90;;;;;;4804803;29;20492;-58
2022/07/01 04:17:31;;;;;;;4.78;2.97;;;15.80;99.90;;;;;;4804302;29;20540;-58
2022/07/01 04:19:57;;;;;;;4.28;3.17;;;15.80;99.90;;;;;;4804628;29;20414;-61
2022/07/01 04:22:38;;;;;;;6.35;3.10;;;15.80;99.90;;;;;;4804402;29;20047;-58
2022/07/01 04:25:04;;;;;;;4.30;2.97;;;15.80;99.90;;;;;;4804917;29;20047;-59
2022/07/01 04:27:31;;;;;;;7.35;3.33;;;15.90;99.90;;;;;;4809907;29;20050;-60
2022/07/01 04:29:56;;;;;;;5.38;3.15;;;15.90;99.90;;;;;;4810747;29;20050;-60
2022/07/01 04:32:23;;;;;;;4.68;3.22;;;15.90;99.90;;;;;;4821837;29;20145;-63
2022/07/01 04:34:48;;;;;;;5.60;2.92;;;15.90;99.90;;;;;;4828773;29;20066;-60
2022/07/01 04:37:14;;;;;;;7.55;3.47;;;15.90;99.90;;;;;;4828666;29;20426;-59
2022/07/01 04:39:40;;;;;;;6.80;3.50;;;15.90;99.90;;;;;;4828248;29;20319;-59
2022/07/01 04:42:06;;;;;;;5.97;3.58;;;15.90;99.90;;;;;;4812248;29;20407;-59
2022/07/01 04:44:33;;;;;;;6.13;3.50;;;15.90;99.90;;;;;;4811929;29;20512;-60
2022/07/01 04:47:00;;;;;;;8.10;3.70;;;15.80;99.90;;;;;;4828628;29;20349;-61
2022/07/01 04:49:26;;;;;;;5.78;4.00;;;15.80;99.90;;;;;;4812124;29;20058;-59
2022/07/01 04:51:53;;;;;;;7.20;3.97;;;15.80;99.90;;;;;;4812504;29;20050;-59
2022/07/01 04:54:19;;;;;;;5.15;3.60;;;15.80;99.90;;;;;;4828645;29;20050;-60
2022/07/01 04:56:45;;;;;;;6.20;3.58;;;15.80;99.90;;;;;;4828269;29;20073;-59
2022/07/01 04:59:12;;;;;;;5.78;3.80;;;15.80;99.90;;;;;;4828467;29;20151;-58
2022/07/01 05:01:38;;;;;;;11.23;4.18;;;15.80;99.90;;;;;;4812030;29;20405;-59
2022/07/01 05:04:04;;;;;;;5.85;3.70;;;15.90;99.90;;;;;;4828445;29;20050;-59
2022/07/01 05:06:29;;;;;;;6.35;3.72;;;15.80;99.90;;;;;;4811621;29;20046;-59
2022/07/01 05:08:56;;;;;;;11.15;4.25;;;15.80;99.90;;;;;;4828272;29;20043;-58
2022/07/01 05:11:21;;;;;;;6.95;4.18;;;15.80;99.90;;;;;;4812336;29;20141;-59
2022/07/01 05:13:47;;;;;;;7.60;4.03;;;15.80;99.90;;;;;;4828030;29;20271;-58
2022/07/01 05:16:13;;;;;;;6.45;4.38;;;15.80;99.90;;;;;;4812069;29;20481;-59
2022/07/01 05:24:09;;;;;;;9.10;5.38;;;15.80;99.90;;;;;;4828419;29;20054;-60
2022/07/01 05:26:34;;;;;;;8.20;5.38;;;15.80;99.90;;;;;;4811502;29;20102;-60
2022/07/01 05:29:00;;;;;;;9.80;6.07;;;15.70;99.90;;;;;;4828179;29;20602;-62
2022/07/01 05:31:26;;;;;;;10.48;6.18;;;15.80;99.90;;;;;;4811905;29;20425;-60
2022/07/01 05:33:52;;;;;;;9.10;6.75;;;15.80;99.90;;;;;;4827989;29;20062;-60
2022/07/01 05:36:17;;;;;;;11.25;7.93;;;15.80;99.90;;;;;;4828290;29;20057;-59
2022/07/01 05:38:43;;;;;;;8.82;7.53;;;15.90;99.90;;;;;;4824889;29;20477;-58
2022/07/01 05:41:09;;;;;;;13.40;8.55;;;15.90;99.90;;;;;;4824726;29;20054;-57
2022/07/01 05:43:35;;;;;;;11.25;8.05;;;15.90;99.90;;;;;;4808774;29;20057;-59
2022/07/01 05:46:00;;;;;;;12.15;8.32;;;15.90;99.90;;;;;;4825109;29;20061;-61
2022/07/01 05:48:27;;;;;;;12.27;9.18;;;16.00;99.90;;;;;;4808939;29;20051;-59
2022/07/01 05:50:53;;;;;;;13.15;8.73;;;16.00;99.90;;;;;;4808815;29;20062;-59
2022/07/01 05:53:19;;;;;;;12.80;9.27;;;16.10;99.90;;;;;;4808976;29;20470;-61
2022/07/01 05:55:45;;;;;;;14.30;10.25;;;16.10;99.90;;;;;;4808695;29;20062;-60
2022/07/01 05:58:12;;;;;;;14.88;10.20;;;16.10;99.90;;;;;;4778608;29;20050;-61
2022/07/01 06:00:42;;;;;;;14.63;10.70;;;16.20;99.90;;;;;;4808773;29;20553;-59
2022/07/01 06:03:13;;;;;;;15.18;11.50;;;16.20;99.90;;;;;;4793550;29;20069;-60
2022/07/01 06:05:40;;;;;;;15.23;12.20;;;16.30;99.90;;;;;;4808653;29;20058;-60
2022/07/01 06:08:07;;;;;;;15.93;11.90;;;16.30;99.90;;;;;;4793952;29;20051;-61
2022/07/01 06:10:35;;;;;;;15.30;11.50;;;16.40;99.90;;;;;;4824903;29;20134;-62
2022/07/01 06:13:02;;;;;;;15.00;12.25;;;16.40;99.90;;;;;;4825143;29;20090;-60
2022/07/01 06:15:29;;;;;;;17.50;12.13;;;16.50;99.90;;;;;;4824555;29;20078;-59
2022/07/01 06:17:56;;;;;;;17.85;12.30;;;16.60;99.90;;;;;;4824347;29;20058;-61
2022/07/01 06:20:22;;;;;;;18.70;12.18;;;16.80;99.90;;;;;;4824654;29;20050;-60
2022/07/01 06:22:47;;;;;;;14.55;12.15;;;16.80;99.90;;;;;;4808066;29;20077;-60
2022/07/01 06:25:14;;;;;;;14.93;11.80;;;16.90;99.90;;;;;;4824590;29;20054;-60
2022/07/01 06:27:41;;;;;;;16.08;11.25;;;16.90;99.90;;;;;;4824270;29;20138;-60
2022/07/01 06:30:07;;;;;;;15.80;11.50;;;16.90;99.90;;;;;;4807922;29;20501;-60
2022/07/01 06:32:33;;;;;;;16.48;12.00;;;16.90;99.90;;;;;;4824683;29;20064;-60
2022/07/01 06:34:58;;;;;;;16.17;10.45;;;17.10;99.90;;;;;;4823793;29;20050;-59
2022/07/01 06:37:24;;;;;;;16.00;10.07;;;16.90;99.90;;;;;;4824486;29;20137;-60
2022/07/01 06:39:50;;;;;;;18.83;12.30;;;16.90;99.90;;;;;;4823780;29;20080;-61
2022/07/01 06:42:16;;;;;;;18.65;11.88;;;16.90;99.90;;;;;;4808272;29;20137;-60
2022/07/01 06:44:42;;;;;;;16.23;11.68;;;17.00;99.90;;;;;;4807645;29;20055;-59
2022/07/01 06:47:07;;;;;;;14.80;11.82;;;17.10;99.90;;;;;;4824350;29;20224;-60
2022/07/01 06:49:33;;;;;;;18.08;12.25;;;17.20;99.90;;;;;;4807657;29;20060;-59
2022/07/01 06:51:59;;;;;;;15.68;11.90;;;17.30;99.90;;;;;;4807770;29;20054;-59
2022/07/01 06:54:24;;;;;;;19.27;11.93;;;17.30;99.90;;;;;;4824217;29;20081;-60
2022/07/01 06:56:50;;;;;;;15.13;11.98;;;17.40;99.90;;;;;;4807409;29;20141;-60
2022/07/01 06:59:16;;;;;;;17.85;11.98;;;17.50;99.90;;;;;;4807738;29;20129;-59
2022/07/01 07:01:42;;;;;;;16.00;10.90;;;17.50;99.90;;;;;;4823490;29;20069;-59
2022/07/01 07:04:08;;;;;;;19.70;12.23;;;17.50;99.90;;;;;;4824055;29;20174;-60
2022/07/01 07:06:33;;;;;;;16.58;11.43;;;17.50;99.90;;;;;;4807628;29;20141;-60
2022/07/01 07:08:59;;;;;;;16.15;11.50;;;17.50;99.90;;;;;;4823456;29;20042;-60
2022/07/01 07:11:26;;;;;;;18.70;12.48;;;17.50;99.90;;;;;;4823728;29;20621;-60
2022/07/01 07:13:52;;;;;;;17.15;12.60;;;17.60;99.90;;;;;;4823465;29;20103;-60
2022/07/01 07:16:21;;;;;;;16.25;11.70;;;17.60;99.90;;;;;;4823575;29;20085;-59
2022/07/01 07:18:50;;;;;;;18.42;11.88;;;17.60;99.90;;;;;;4822959;29;20501;-60
2022/07/01 07:21:16;;;;;;;18.15;11.52;;;17.70;99.90;;;;;;4823825;29;20055;-59
2022/07/01 07:23:42;;;;;;;19.67;14.07;;;17.70;99.90;;;;;;4823474;29;20343;-65
2022/07/01 07:26:09;;;;;;;18.58;12.90;;;17.80;99.90;;;;;;4823454;29;20129;-59
2022/07/01 07:28:35;;;;;;;18.98;12.65;;;17.80;99.90;;;;;;4823374;29;20042;-60
2022/07/01 07:31:01;;;;;;;15.27;12.35;;;17.80;99.90;;;;;;4806354;29;20065;-60
2022/07/01 07:33:27;;;;;;;14.45;11.68;;;17.80;99.90;;;;;;4823453;29;20062;-59
2022/07/01 07:35:52;;;;;;;13.55;11.68;;;17.80;99.90;;;;;;4822949;29;20145;-58
2022/07/01 07:38:18;;;;;;;17.67;12.90;;;17.80;99.90;;;;;;4806982;29;20397;-60
2022/07/01 07:40:44;;;;;;;19.17;13.40;;;17.90;99.90;;;;;;4823315;29;20065;-63
2022/07/01 07:43:10;;;;;;;16.67;13.07;;;18.00;99.90;;;;;;4807009;29;20061;-61
2022/07/01 07:45:35;;;;;;;17.50;12.25;;;18.00;99.90;;;;;;4807181;29;20122;-61
2022/07/01 07:48:02;;;;;;;18.83;13.15;;;18.00;99.90;;;;;;4822991;29;20046;-61
2022/07/01 07:50:28;;;;;;;16.30;13.35;;;18.10;99.90;;;;;;4823464;29;20090;-60
2022/07/01 07:52:53;;;;;;;18.35;13.32;;;18.00;99.90;;;;;;4791846;29;20100;-61
2022/07/01 07:55:19;;;;;;;17.88;13.75;;;18.10;99.90;;;;;;4806920;29;20050;-61
2022/07/01 07:57:45;;;;;;;15.90;12.55;;;18.10;99.90;;;;;;4823277;29;20439;-60
2022/07/01 08:00:12;;;;;;;16.08;11.98;;;18.10;99.90;;;;;;4822425;29;20097;-61
2022/07/01 08:02:40;;;;;;;15.88;12.40;;;18.10;99.90;;;;;;4822773;29;20062;-61
2022/07/01 08:05:07;;;;;;;13.35;11.38;;;18.10;99.90;;;;;;4823008;29;20331;-61
2022/07/01 08:07:43;;;;;;;15.98;12.27;;;18.20;99.90;;;;;;4823269;29;20115;-61
2022/07/01 08:10:11;;;;;;;15.32;10.57;;;18.30;99.90;;;;;;4791420;29;20137;-61
2022/07/01 08:12:37;;;;;;;14.77;10.80;;;18.60;99.90;;;;;;4822635;29;20054;-60
2022/07/01 08:15:04;;;;;;;13.80;11.27;;;19.20;99.90;;;;;;4806372;29;20099;-63
2022/07/01 08:17:30;;;;;;;12.70;10.85;;;19.80;99.90;;;;;;4823126;29;20060;-61
2022/07/01 08:19:56;;;;;;;14.77;10.57;;;20.10;99.90;;;;;;4821343;29;20042;-61
2022/07/01 08:22:22;;;;;;;10.65;9.00;;;20.10;99.90;;;;;;4806472;29;20134;-61
2022/07/01 08:24:48;;;;;;;14.07;9.65;;;20.20;99.90;;;;;;4823001;29;20466;-61
2022/07/01 08:27:14;;;;;;;12.70;9.50;;;20.10;99.90;;;;;;4806344;29;20130;-61
2022/07/01 08:29:40;;;;;;;14.98;9.88;;;19.90;99.90;;;;;;4822962;29;20061;-61
2022/07/01 08:32:06;;;;;;;13.30;9.73;;;19.90;99.90;;;;;;4806208;29;20062;-61
2022/07/01 08:34:32;;;;;;;10.82;8.15;;;19.90;99.90;;;;;;4806726;29;20122;-62
2022/07/01 08:36:58;;;;;;;10.55;8.35;;;19.80;99.90;;;;;;4822673;29;20054;-61
2022/07/01 08:39:24;;;;;;;12.43;8.68;;;20.00;99.90;;;;;;4822599;29;20054;-61
2022/07/01 08:41:50;;;;;;;10.70;7.45;;;20.30;99.90;;;;;;4791456;29;20058;-61
2022/07/01 08:44:15;;;;;;;10.63;6.88;;;20.50;99.90;;;;;;4822249;29;20059;-61
2022/07/01 08:46:41;;;;;;;9.45;6.47;;;;;;;;;;4822619;29;20496;-61
2022/07/01 08:49:07;;;;;;;7.95;6.45;;;20.70;99.90;;;;;;4822410;29;20130;-61
2022/07/01 08:51:33;;;;;;;7.43;5.47;;;21.60;99.90;;;;;;4822912;29;20478;-60
2022/07/01 08:53:59;;;;;;;9.77;6.32;;;21.60;99.90;;;;;;4822438;29;20046;-61
2022/07/01 08:56:44;;;;;;;11.73;5.60;;;21.40;99.90;;;;;;4806646;29;20058;-61
2022/07/01 08:59:12;;;;;;;9.05;4.82;;;21.40;99.90;;;;;;4808653;29;20050;-61
2022/07/01 09:01:39;;;;;;;9.48;4.75;;;21.60;99.90;;;;;;4822896;29;20501;-61
2022/07/01 09:04:16;;;;;;;7.85;4.35;;;22.10;99.90;;;;;;4821978;29;20493;-61
2022/07/01 09:06:43;;;;;;;6.50;4.20;;;22.80;99.90;;;;;;4806235;29;20418;-61
2022/07/01 09:09:16;;;;;;;7.82;3.60;;;23.30;99.90;;;;;;4822411;29;20050;-61
2022/07/01 09:11:53;;;;;;;6.80;3.30;;;24.00;99.90;;;;;;4823205;29;20062;-61
2022/07/01 09:14:24;;;;;;;6.80;3.38;;;24.40;99.90;;;;;;4825605;29;20138;-60
2022/07/01 09:16:55;;;;;;;6.07;3.15;;;24.30;98.70;;;;;;4825657;29;20108;-60
2022/07/01 09:19:22;;;;;;;5.28;3.00;;;24.50;99.20;;;;;;4825594;29;20073;-61
2022/07/01 09:21:55;;;;;;;7.10;3.03;;;24.90;98.40;;;;;;4794578;29;20493;-62
2022/07/01 09:24:33;;;;;;;6.80;3.10;;;25.10;97.30;;;;;;4825816;29;20046;-62
2022/07/01 09:27:13;;;;;;;7.32;3.50;;;24.80;96.90;;;;;;4825542;29;20133;-64
2022/07/01 09:29:45;;;;;;;5.60;3.10;;;24.40;97.30;;;;;;4825955;29;20050;-62
2022/07/01 09:32:13;;;;;;;8.38;3.13;;;23.90;97.60;;;;;;4824892;29;20124;-61
2022/07/01 09:34:47;;;;;;;7.32;3.08;;;23.70;98.60;;;;;;4825587;29;20061;-61
2022/07/01 09:37:16;;;;;;;7.95;3.72;;;23.60;99.00;;;;;;4825204;29;20082;-60
2022/07/01 09:39:47;;;;;;;6.65;3.17;;;23.60;98.70;;;;;;4825555;29;20051;-60
2022/07/01 09:42:14;;;;;;;7.38;3.20;;;23.60;98.90;;;;;;4794069;29;20090;-62
2022/07/01 09:45:05;;;;;;;7.43;3.00;;;23.80;98.80;;;;;;4825245;29;20574;-61
2022/07/01 09:47:32;;;;;;;7.25;3.40;;;24.00;97.60;;;;;;4825265;29;20062;-60
2022/07/01 09:49:59;;;;;;;5.85;3.03;;;23.80;98.10;;;;;;4825365;29;20047;-60
2022/07/01 09:52:25;;;;;;;5.82;3.20;;;23.70;97.70;;;;;;4824998;29;20057;-61
2022/07/01 09:54:52;;;;;;;6.72;2.80;;;23.60;98.10;;;;;;4825349;29;20054;-60
2022/07/01 09:57:18;;;;;;;5.15;2.95;;;23.50;98.30;;;;;;4808875;29;20409;-62
2022/07/01 09:59:44;;;;;;;6.93;2.28;;;23.30;98.10;;;;;;4808814;29;20054;-61
2022/07/01 10:02:11;;;;;;;6.60;2.40;;;23.10;97.70;;;;;;4824682;29;20408;-61
2022/07/01 10:04:42;;;;;;;4.55;2.38;;;23.10;97.20;;;;;;4825226;29;20097;-60
2022/07/01 10:07:18;;;;;;;4.78;2.38;;;22.80;97.00;;;;;;4824862;29;20054;-61
2022/07/01 10:10:24;;;;;;;6.65;2.53;;;22.80;97.80;;;;;;4822609;29;20062;-62
2022/07/01 10:12:55;;;;;;;5.28;2.28;;;23.00;97.90;;;;;;4824143;29;20474;-60
2022/07/01 10:15:21;;;;;;;4.38;2.25;;;23.20;98.20;;;;;;4824389;29;20062;-60
2022/07/01 10:17:50;;;;;;;7.63;3.35;;;23.40;98.00;;;;;;4793759;29;20434;-61
2022/07/01 10:20:17;;;;;;;6.68;2.90;;;23.40;97.90;;;;;;4806316;29;20062;-61
2022/07/01 10:22:44;;;;;;;6.22;3.05;;;23.50;97.90;;;;;;4807712;29;20498;-63
2022/07/01 10:25:35;;;;;;;6.95;3.15;;;23.50;97.90;;;;;;4822048;29;20111;-62
2022/07/01 10:28:24;;;;;;;7.78;3.15;;;23.50;97.40;;;;;;4808471;29;20053;-62
2022/07/01 10:30:59;;;;;;;6.30;3.03;;;23.50;96.90;;;;;;4824671;29;20057;-62
2022/07/01 10:33:27;;;;;;;6.43;2.70;;;23.40;96.90;;;;;;4823835;29;20062;-62
2022/07/01 10:35:53;;;;;;;8.02;2.47;;;23.40;97.20;;;;;;4824641;29;20062;-62
2022/07/01 10:38:19;;;;;;;5.70;2.40;;;23.40;97.30;;;;;;4824037;29;20511;-62
2022/07/01 10:40:47;;;;;;;5.18;2.20;;;23.50;96.40;;;;;;4808339;29;20050;-61
2022/07/01 10:43:32;;;;;;;7.70;2.58;;;23.50;96.40;;;;;;4824026;29;20056;-60
2022/07/01 10:45:58;;;;;;;6.43;2.58;;;23.40;97.20;;;;;;4824459;29;20138;-58
2022/07/01 10:48:25;;;;;;;5.32;2.63;;;23.40;96.90;;;;;;4823682;29;20129;-58
2022/07/01 10:50:52;;;;;;;5.85;2.67;;;23.40;97.00;;;;;;4824377;29;20050;-59
2022/07/01 10:53:18;;;;;;;6.88;2.85;;;23.30;96.80;;;;;;4807604;29;20101;-59
2022/07/01 10:55:52;;;;;;;8.93;3.45;;;23.20;97.10;;;;;;4824248;29;20054;-58
2022/07/01 10:58:20;;;;;;;7.03;2.90;;;23.00;97.20;;;;;;4823940;29;20050;-60
2022/07/01 11:00:47;;;;;;;6.72;3.15;;;23.10;97.60;;;;;;4824169;29;20054;-58
2022/07/01 11:03:15;;;;;;;5.68;2.80;;;23.10;97.80;;;;;;4823671;29;20615;-63
2022/07/01 11:05:43;;;;;;;6.07;2.72;;;23.10;97.40;;;;;;4793109;29;20413;-60
2022/07/01 11:08:11;;;;;;;6.05;2.85;;;23.20;97.80;;;;;;4824249;29;20110;-60
2022/07/01 11:10:38;;;;;;;9.45;2.70;;;23.20;97.90;;;;;;4824135;29;20069;-59
2022/07/01 11:13:04;;;;;;;6.40;2.88;;;23.10;96.80;;;;;;4807736;29;20050;-59
2022/07/01 11:15:30;;;;;;;12.48;2.50;;;22.90;96.80;;;;;;4807605;29;20056;-60
2022/07/01 11:17:57;;;;;;;3.85;1.70;;;22.60;97.80;;;;;;4824019;29;20051;-61
2022/07/01 11:20:25;;;;;;;4.72;1.40;;;22.30;98.80;;;;;;4823606;29;20062;-60
2022/07/01 11:22:51;;;;;;;6.28;1.40;;;22.00;98.30;;;;;;4823776;29;20066;-60
2022/07/01 11:25:19;;;;;;;4.05;1.30;;;21.80;99.00;;;;;;4823376;29;20050;-59
2022/07/01 11:27:46;;;;;;;4.63;1.40;;;21.40;98.80;;;;;;4823953;29;20133;-59
2022/07/01 11:30:13;;;;;;;5.82;1.67;;;21.10;98.60;;;;;;4823943;29;20057;-58
2022/07/01 11:32:42;;;;;;;5.25;1.52;;;21.00;99.20;;;;;;4806730;29;20096;-59
2022/07/01 11:40:50;;;;;;;4.65;2.30;;;20.90;98.10;;;;;;4823754;29;20390;-59
2022/07/01 11:43:33;;;;;;;5.53;1.67;;;20.80;99.60;;;;;;4823661;29;20137;-59
2022/07/01 11:46:01;;;;;;;3.88;1.60;;;20.70;99.20;;;;;;4823734;29;20057;-60
2022/07/01 11:48:30;;;;;;;3.13;1.30;;;20.70;98.20;;;;;;4823383;29;20042;-59
2022/07/01 11:50:57;;;;;;;3.47;1.55;;;20.80;98.90;;;;;;4807028;29;20057;-58
2022/07/01 11:53:24;;;;;;;5.72;1.50;;;21.00;99.00;;;;;;4822773;29;20497;-58
2022/07/01 11:55:50;;;;;;;4.95;1.42;;;21.20;99.20;;;;;;4823497;29;20046;-59
2022/07/01 11:58:15;;;;;;;3.50;1.63;;;21.40;98.90;;;;;;4823038;29;20053;-59
2022/07/01 12:00:41;;;;;;;6.63;1.75;;;21.40;98.80;;;;;;4806846;29;20064;-59
2022/07/01 12:03:07;;;;;;;5.07;1.80;;;21.50;99.00;;;;;;4823364;29;20076;-62
2022/07/01 12:05:34;;;;;;;6.28;2.08;;;21.50;99.00;;;;;;4822674;29;20082;-60
2022/07/01 12:08:01;;;;;;;4.07;1.80;;;21.50;98.30;;;;;;4823152;29;20441;-60
2022/07/01 12:10:28;;;;;;;4.20;1.40;;;21.50;98.70;;;;;;4806802;29;20062;-58
2022/07/01 12:12:54;;;;;;;5.55;1.70;;;21.60;99.50;;;;;;4822989;29;20111;-60
2022/07/01 12:15:20;;;;;;;4.53;1.40;;;21.70;99.40;;;;;;4791815;29;20054;-58
2022/07/01 12:17:46;;;;;;;4.85;1.80;;;21.90;99.00;;;;;;4823171;29;20050;-58
2022/07/01 12:20:12;;;;;;;4.72;1.80;;;22.10;98.40;;;;;;4806832;29;20057;-58
2022/07/01 12:22:38;;;;;;;3.42;1.30;;;22.10;97.90;;;;;;4822636;29;20046;-61
2022/07/01 12:25:13;;;;;;;5.43;1.33;;;22.10;98.00;;;;;;4791874;29;20171;-60
2022/07/01 12:27:40;;;;;;;3.88;1.70;;;22.20;98.30;;;;;;4806496;29;20062;-59
2022/07/01 12:30:08;;;;;;;5.45;1.60;;;22.20;98.80;;;;;;4823132;29;20051;-58
2022/07/01 12:32:37;;;;;;;8.73;1.95;;;22.30;99.20;;;;;;4806417;29;20145;-58
2022/07/01 12:35:33;;;;;;;3.45;1.50;;;22.30;99.00;;;;;;4823210;29;20535;-59
2022/07/01 12:37:54;;;;;;;4.95;1.50;;;22.30;98.80;;;;;;4822518;29;20505;-60
2022/07/01 12:40:27;;;;;;;3.67;1.67;;;22.40;98.50;;;;;;4806728;29;20501;-59
2022/07/01 12:42:53;;;;;;;4.40;1.50;;;22.40;98.00;;;;;;4823125;29;20479;-60
2022/07/01 12:45:24;;;;;;;4.10;1.40;;;22.40;98.30;;;;;;4791870;29;20137;-59
2022/07/01 12:47:54;;;;;;;4.55;1.45;;;22.50;98.60;;;;;;4824127;29;20090;-59
2022/07/01 12:50:22;;;;;;;4.60;1.30;;;22.60;97.80;;;;;;4810204;29;20058;-58
2022/07/01 12:53:19;;;;;;;4.25;1.42;;;22.60;97.80;;;;;;4826115;29;20283;-59
2022/07/01 12:55:47;;;;;;;3.95;1.40;;;22.80;98.30;;;;;;4809940;29;20054;-59